< < Back
Terminal Aerodrome Forecast


Current Version              Previous Versions:   1  2  3  4  5  6  7  8  9  

Terminal Aerodrome Forecast

462
FTUS42 KJAX 201700
TAFSSI
TAF
KSSI 201726Z 2018/2118 27007KT P6SM SKC
     FM202200 VRB03KT P6SM FEW250
     FM210600 VRB03KT P6SM SCT250
     FM211500 03008KT P6SM SCT025=



Latest METAR

007
SAUS70 KWBC 211600 RRK
MTRSSI
METAR KSSI 211553Z AUTO 05008KT 10SM CLR 17/03 A3038 RMK AO2 SLP287
T01720033


USA.gov is the U.S. government's official web portal to all federal, state and local government web resources and services.